createdAt,value
2022-12-11T00:03:48.369Z,82.31
2022-12-11T00:08:52.948Z,81.53
2022-12-11T00:13:57.116Z,81.59
2022-12-11T00:18:59.905Z,81.30
2022-12-11T00:24:02.655Z,81.72
2022-12-11T00:29:08.219Z,82.66
2022-12-11T00:34:12.039Z,81.96
2022-12-11T00:39:14.839Z,81.85
2022-12-11T00:44:18.961Z,81.93
2022-12-11T00:49:21.803Z,81.56
2022-12-11T00:54:24.622Z,81.54
2022-12-11T00:59:29.156Z,81.27
2022-12-11T01:04:31.975Z,80.68
2022-12-11T01:09:52.028Z,80.81
2022-12-11T01:14:56.095Z,80.40
2022-12-11T01:19:58.831Z,80.71
2022-12-11T01:25:01.594Z,79.30
2022-12-11T01:30:07.429Z,79.92
2022-12-11T01:35:12.350Z,79.96
2022-12-11T01:40:16.631Z,80.08
2022-12-11T01:45:40.008Z,79.59
2022-12-11T01:50:48.057Z,79.93
2022-12-11T01:55:54.743Z,80.11
2022-12-11T02:01:00.098Z,81.51
2022-12-11T02:06:03.444Z,81.87
2022-12-11T02:11:12.555Z,82.58
2022-12-11T02:16:25.378Z,83.10
2022-12-11T02:21:36.089Z,84.04
2022-12-11T02:26:58.476Z,84.29
2022-12-11T02:32:08.904Z,83.98
2022-12-11T02:37:17.471Z,83.76
2022-12-11T02:42:21.595Z,83.34
2022-12-11T02:47:29.271Z,84.20
2022-12-11T02:52:33.601Z,83.52
2022-12-11T02:57:41.148Z,84.21
2022-12-11T03:02:46.556Z,84.77
2022-12-11T03:07:49.610Z,84.90
2022-12-11T03:12:56.481Z,83.94
2022-12-11T03:18:07.590Z,83.39
2022-12-11T03:23:20.118Z,83.34
2022-12-11T03:28:30.334Z,83.93
2022-12-11T03:33:38.691Z,84.14
2022-12-11T03:38:43.278Z,83.45
2022-12-11T03:43:46.931Z,83.64
2022-12-11T03:48:52.852Z,83.92
2022-12-11T03:53:56.996Z,84.00
2022-12-11T03:58:59.952Z,83.80
2022-12-11T04:04:04.610Z,83.65
2022-12-11T04:09:10.343Z,83.67
2022-12-11T04:14:33.400Z,83.60
2022-12-11T04:19:55.263Z,84.67
2022-12-11T04:24:58.048Z,85.30
2022-12-11T04:30:01.876Z,85.07
2022-12-11T04:35:11.155Z,85.30
2022-12-11T04:40:19.783Z,85.44
2022-12-11T04:45:22.631Z,85.49
2022-12-11T04:50:27.067Z,85.78
2022-12-11T04:55:32.784Z,85.32
2022-12-11T05:00:35.638Z,86.03
2022-12-11T05:05:39.975Z,84.17
2022-12-11T05:10:48.540Z,83.77
2022-12-11T05:15:52.858Z,82.01
2022-12-11T05:21:02.239Z,82.93
2022-12-11T05:26:08.179Z,80.95
2022-12-11T05:31:17.485Z,80.30
2022-12-11T05:36:24.870Z,79.27
2022-12-11T05:41:29.671Z,79.81
2022-12-11T05:46:32.623Z,78.60
2022-12-11T05:51:36.789Z,77.23
2022-12-11T05:56:39.602Z,76.16
2022-12-11T06:01:46.882Z,76.97
2022-12-11T06:06:51.351Z,76.88
2022-12-11T06:11:54.138Z,76.32
2022-12-11T06:16:56.912Z,75.52
2022-12-11T06:22:01.020Z,74.06
2022-12-11T06:27:03.817Z,76.08
2022-12-11T06:32:06.940Z,77.38
2022-12-11T06:37:11.772Z,76.83
2022-12-11T06:42:41.523Z,78.59
2022-12-11T06:47:44.393Z,78.83
2022-12-11T06:52:48.705Z,80.01
2022-12-11T06:57:51.530Z,79.05
2022-12-11T07:02:54.574Z,79.17
2022-12-11T07:07:59.155Z,79.25
2022-12-11T07:13:02.230Z,79.66
2022-12-11T07:18:08.122Z,80.08
2022-12-11T07:23:12.545Z,80.95
2022-12-11T07:28:16.896Z,81.55
2022-12-11T07:33:19.888Z,82.39
2022-12-11T07:38:24.857Z,82.65
2022-12-11T07:43:27.626Z,82.66
2022-12-11T07:48:34.025Z,82.75
2022-12-11T07:53:39.820Z,81.76
2022-12-11T07:58:42.727Z,83.36
2022-12-11T08:03:46.451Z,83.42
2022-12-11T08:08:50.650Z,80.32
2022-12-11T08:13:53.828Z,80.99
2022-12-11T08:18:57.576Z,80.38
2022-12-11T08:24:11.159Z,80.19
2022-12-11T08:29:14.156Z,80.55
2022-12-11T08:34:17.940Z,80.52
2022-12-11T08:39:22.517Z,80.98
2022-12-11T08:44:27.083Z,80.35
2022-12-11T08:49:34.181Z,80.39
2022-12-11T08:54:40.231Z,78.64
2022-12-11T08:59:43.093Z,77.61
2022-12-11T09:04:45.882Z,79.91
2022-12-11T09:09:50.077Z,79.29
2022-12-11T09:14:53.127Z,79.31
2022-12-11T09:19:55.990Z,78.61
2022-12-11T09:25:00.210Z,75.82
2022-12-11T09:30:03.005Z,77.42
2022-12-11T09:35:06.724Z,77.15
2022-12-11T09:40:13.306Z,77.01
2022-12-11T09:45:17.745Z,75.73
2022-12-11T09:50:24.076Z,76.98
2022-12-11T09:55:38.276Z,78.88
2022-12-11T10:00:46.911Z,78.17
2022-12-11T10:06:01.152Z,78.60
2022-12-11T10:11:23.906Z,77.55
2022-12-11T10:16:36.806Z,76.62
2022-12-11T10:21:42.424Z,78.65
2022-12-11T10:26:47.759Z,78.10
2022-12-11T10:31:54.874Z,76.87
2022-12-11T10:37:00.545Z,76.61
2022-12-11T10:42:17.434Z,76.40
2022-12-11T10:47:20.207Z,77.02
2022-12-11T10:52:25.170Z,76.73
2022-12-11T10:57:32.128Z,77.04
2022-12-11T11:02:37.583Z,76.99
2022-12-11T11:07:40.652Z,77.21
2022-12-11T11:12:47.658Z,77.44
2022-12-11T11:17:55.800Z,77.05
2022-12-11T11:23:02.800Z,76.21
2022-12-11T11:28:08.812Z,77.44
2022-12-11T11:33:15.649Z,75.97
2022-12-11T11:38:24.242Z,77.46
2022-12-11T11:43:35.352Z,76.31
2022-12-11T11:48:46.893Z,75.47
2022-12-11T11:53:51.710Z,78.74
2022-12-11T11:59:08.440Z,78.44
2022-12-11T12:04:12.875Z,76.65
2022-12-11T12:09:29.056Z,76.21
2022-12-11T12:14:54.518Z,77.50
2022-12-11T12:20:05.212Z,76.72
2022-12-11T12:25:28.151Z,77.35
2022-12-11T12:30:45.696Z,78.15
2022-12-11T12:36:18.634Z,77.83
2022-12-11T12:41:45.777Z,76.33
2022-12-11T12:47:04.792Z,77.00
2022-12-11T12:52:13.161Z,76.46
2022-12-11T12:57:18.415Z,77.48
2022-12-11T13:02:23.882Z,77.23
2022-12-11T13:07:30.706Z,77.05
2022-12-11T13:12:47.847Z,76.17
2022-12-11T13:17:53.055Z,74.62
2022-12-11T13:23:10.219Z,72.24
2022-12-11T13:28:24.911Z,72.18
2022-12-11T13:33:31.133Z,71.59
2022-12-11T13:38:37.400Z,71.23
2022-12-11T13:43:42.892Z,69.93
2022-12-11T13:48:49.876Z,70.42
2022-12-11T13:54:04.926Z,70.06
2022-12-11T13:59:22.141Z,71.20
2022-12-11T14:04:39.143Z,72.13
2022-12-11T14:09:45.418Z,70.93
2022-12-11T14:14:52.867Z,71.38
2022-12-11T14:20:02.217Z,73.31
2022-12-11T14:25:21.685Z,74.71
2022-12-11T14:30:27.251Z,75.17
2022-12-11T14:35:38.875Z,79.00
2022-12-11T14:40:48.022Z,80.39
2022-12-11T14:45:55.777Z,81.24
2022-12-11T14:51:06.112Z,81.51
2022-12-11T14:56:16.973Z,83.05
2022-12-11T15:01:25.031Z,81.87
2022-12-11T15:06:30.728Z,81.21
2022-12-11T15:11:33.867Z,81.43
2022-12-11T15:16:41.672Z,79.45
2022-12-11T15:21:46.053Z,77.81
2022-12-11T15:26:49.675Z,77.48
2022-12-11T15:32:01.454Z,77.10
2022-12-11T15:37:05.578Z,78.18
2022-12-11T15:42:08.352Z,79.03
2022-12-11T15:47:15.379Z,80.52
2022-12-11T15:52:19.485Z,80.85
2022-12-11T15:57:24.969Z,81.47
2022-12-11T16:02:28.050Z,80.68
2022-12-11T16:07:33.286Z,81.68
2022-12-11T16:12:36.062Z,82.06
2022-12-11T16:17:38.900Z,81.66
2022-12-11T16:22:43.111Z,80.36
2022-12-11T16:27:46.260Z,80.78
2022-12-11T16:32:49.120Z,81.75
2022-12-11T16:37:54.738Z,81.54
2022-12-11T16:42:58.526Z,80.84
2022-12-11T16:48:03.916Z,80.38
2022-12-11T16:53:08.018Z,79.86
2022-12-11T16:58:15.874Z,80.34
2022-12-11T17:03:19.419Z,80.81
2022-12-11T17:08:24.278Z,80.77
2022-12-11T17:13:29.566Z,80.83
2022-12-11T17:18:37.230Z,82.38
2022-12-11T17:23:41.579Z,82.29
2022-12-11T17:28:45.947Z,81.35
2022-12-11T17:33:49.626Z,80.78
2022-12-11T17:38:54.920Z,80.61
2022-12-11T17:43:57.763Z,80.42
2022-12-11T17:49:02.774Z,80.13
2022-12-11T17:54:06.978Z,79.18
2022-12-11T17:59:09.822Z,80.84
2022-12-11T18:04:12.797Z,80.46
2022-12-11T18:09:17.031Z,81.23
2022-12-11T18:14:19.824Z,81.72
2022-12-11T18:19:23.276Z,80.17
2022-12-11T18:24:31.699Z,80.72
2022-12-11T18:29:35.688Z,82.11
2022-12-11T18:34:38.445Z,82.96
2022-12-11T18:39:43.028Z,82.83
2022-12-11T18:44:46.458Z,83.78
2022-12-11T18:49:49.337Z,81.91
2022-12-11T18:54:53.722Z,82.59
2022-12-11T18:59:56.574Z,79.72
2022-12-11T19:04:59.725Z,78.32
2022-12-11T19:10:04.059Z,78.36
2022-12-11T19:15:07.895Z,79.12
2022-12-11T19:20:40.391Z,79.05
2022-12-11T19:25:43.244Z,78.46
2022-12-11T19:30:47.455Z,77.93
2022-12-11T19:35:50.375Z,80.08
2022-12-11T19:40:54.797Z,80.31
2022-12-11T19:45:57.635Z,80.40
2022-12-11T19:51:05.357Z,80.61
2022-12-11T19:56:29.362Z,80.85
2022-12-11T20:07:30.650Z,81.76
2022-12-11T20:12:45.483Z,82.00
2022-12-11T20:17:57.918Z,81.24
2022-12-11T20:23:02.935Z,80.79
2022-12-11T20:34:47.846Z,79.82
2022-12-11T20:39:54.072Z,78.20
2022-12-11T20:44:59.861Z,79.60
2022-12-11T20:50:24.003Z,79.92
2022-12-11T20:55:26.970Z,78.75
2022-12-11T21:00:41.893Z,79.49
2022-12-11T21:05:48.029Z,81.60
2022-12-11T21:10:53.673Z,79.25
2022-12-11T21:16:06.370Z,78.01
2022-12-11T21:21:21.133Z,77.41
2022-12-11T21:26:24.182Z,79.24
2022-12-11T21:31:30.993Z,79.31
2022-12-11T21:36:34.017Z,80.41
2022-12-11T21:41:52.997Z,80.76
2022-12-11T21:52:27.341Z,78.25
2022-12-11T21:57:34.300Z,78.74
2022-12-11T22:02:41.344Z,78.88
2022-12-11T22:07:44.438Z,79.20
2022-12-11T22:12:47.257Z,79.39
2022-12-11T22:17:52.837Z,79.81
2022-12-11T22:22:58.828Z,79.92
2022-12-11T22:28:02.187Z,79.25
2022-12-11T22:33:06.511Z,78.21
2022-12-11T22:38:09.349Z,77.65
2022-12-11T22:43:13.058Z,78.94
2022-12-11T22:48:17.301Z,81.60
2022-12-11T22:53:20.309Z,82.28
2022-12-11T22:58:23.111Z,81.77
2022-12-11T23:03:27.417Z,82.40
2022-12-11T23:08:30.337Z,82.34
2022-12-11T23:13:33.173Z,83.71
2022-12-11T23:18:37.378Z,83.58
2022-12-11T23:23:40.821Z,84.28
2022-12-11T23:28:43.668Z,83.60
2022-12-11T23:33:47.941Z,84.92
2022-12-11T23:38:54.561Z,84.71
2022-12-11T23:43:57.964Z,85.36
2022-12-11T23:49:02.063Z,86.58
2022-12-11T23:54:04.908Z,87.07
2022-12-11T23:59:07.710Z,85.74
